Boynton Beach, FL (33472)

11:34 PM EDT on July 25, 2016 (GMT -0400)
Venetian Isles | | Change Station

Elev 20 ft 26.55 °N, 80.18 °W | Updated 4 minutes ago

Scattered Clouds
Scattered Clouds
81.1 °F
Feels Like 87 °F
N
0.0
Wind Variable Wind from ESE
Gusts 0.0 mph

Today
High -- | Low -- °F
--% Chance of Precip.
Yesterday
High -- | Low -- °F
Precip. -- in
Pressure 30.08 in
Visibility 10.0 miles
Clouds Scattered Clouds 2300 ft
Heat Index 87 °F
Dew Point 76 °F
Humidity 84%
Rainfall 0.00 in
Snow Depth Not available.
6:42 AM 8:11 PM
Waning Gibbous, 59% visible
METAR KPBI 260253Z 13008KT 10SM SCT023 29/24 A3008 RMK AO2 SLP185 T02890239 53007
Pressure 30.08 in
Visibility 10.0 miles
Clouds Scattered Clouds 2300 ft
Heat Index 87 °F
Dew Point 76 °F
Humidity 84%
Rainfall 0.00 in
Snow Depth Not available.
6:42 AM 8:11 PM
Waning Gibbous, 59% visible
METAR KPBI 260253Z 13008KT 10SM SCT023 29/24 A3008 RMK AO2 SLP185 T02890239 53007
Record highs are possible for parts of the Northeast Monday and Tuesday, as parts of the central U.S. take a little breather from the worst of summer's dog day heat.

Expansive high pressure in the upper atmosphere will focus on parts of the East and West this week, sending heat indices well into the triple digits from the Mid-Atlantic states into the South.

10-Day Weather Forecast

Almanac

Astronomy

Jul. 25, 2016 Rise Set
Actual Time
Civil Twilight
Nautical Twilight
Astronomical Twilight
Moon
Length of Visible Light
Length of Day
Tomorrow will be .
, % of the Moon is Illuminated

Today's Extremes

State Highs State Lows

Community

WunderPhotos

Upload Photos

1,927,522 photos uploaded!

WunderBlog® & News

Nearby

Air Quality

  Air Quality AQ Index Pollutant
Not available.

Snow Depth

Station Depth Elevation

Earthquake Activity

City Distance Mag. Time & Date
Minimum magnitude displayed is 2.5.

Coastal Water Temperatures

Place Temperature

Stations

Nearby Weather Stations

Station Location Temp. Windchill Dew Point Humidity Wind Precip. Elev Updated Type
                   

Watches & Warnings

There are currently no watches in effect.